Time;durP1;ratioP1;P1;durP2;ratioP2;P2;SDS_P1;SDS_P2;PMS_P1;PMS_P2;Temp;Humidity;BMP_temperature;BMP_pressure;BME280_temperature;BME280_humidity;BME280_pressure;Samples;Min_cycle;Max_cycle;Signal;HPM_P1;HPM_P2
2023/12/03 00:01:06;;;;;;;27.23;14.00;;;12.30;55.50;;;;;;5054041;28;20546;-79
2023/12/03 00:03:34;;;;;;;28.33;14.50;;;12.30;55.40;;;;;;5047166;28;20465;-78
2023/12/03 00:06:02;;;;;;;28.23;13.70;;;12.30;55.60;;;;;;5050268;28;20604;-75
2023/12/03 00:08:31;;;;;;;28.40;14.57;;;12.30;55.50;;;;;;5052640;28;20446;-76
2023/12/03 00:11:11;;;;;;;24.70;14.40;;;12.40;55.50;;;;;;5052100;28;20414;-76
2023/12/03 00:13:41;;;;;;;26.47;14.40;;;12.40;55.60;;;;;;5054940;28;20443;-77
2023/12/03 00:16:10;;;;;;;24.80;13.93;;;12.40;55.60;;;;;;5062550;28;20544;-77
2023/12/03 00:18:39;;;;;;;23.17;13.07;;;12.40;55.80;;;;;;5047564;28;20443;-76
2023/12/03 00:21:08;;;;;;;25.83;12.87;;;12.40;55.90;;;;;;5054547;28;20467;-76
2023/12/03 00:23:36;;;;;;;26.57;13.20;;;12.40;55.80;;;;;;5055337;28;20431;-76
2023/12/03 00:26:04;;;;;;;23.33;12.57;;;12.40;56.00;;;;;;5054834;28;21047;-77
2023/12/03 00:28:32;;;;;;;23.80;13.87;;;12.40;56.10;;;;;;5052523;28;20454;-76
2023/12/03 00:31:01;;;;;;;23.60;12.70;;;12.40;56.30;;;;;;5055414;28;20534;-76
2023/12/03 00:33:29;;;;;;;21.70;12.80;;;12.40;56.20;;;;;;5047541;28;20487;-76
2023/12/03 00:36:00;;;;;;;24.67;13.03;;;12.40;56.20;;;;;;5055674;28;20466;-77
2023/12/03 00:38:27;;;;;;;22.50;12.97;;;12.50;56.50;;;;;;5065495;28;20443;-76
2023/12/03 00:40:56;;;;;;;23.20;12.23;;;12.50;56.40;;;;;;5078332;28;20470;-77
2023/12/03 00:43:23;;;;;;;27.60;12.53;;;12.40;56.40;;;;;;5076302;28;20423;-77
2023/12/03 00:45:53;;;;;;;21.83;12.10;;;12.50;56.50;;;;;;5060173;28;20446;-76
2023/12/03 00:48:22;;;;;;;19.97;11.50;;;12.50;56.60;;;;;;5054948;28;20426;-76
2023/12/03 00:50:50;;;;;;;21.00;11.93;;;12.50;56.50;;;;;;5057124;28;20435;-77
2023/12/03 00:53:18;;;;;;;23.93;12.87;;;12.50;56.70;;;;;;5054812;28;20466;-76
2023/12/03 00:55:46;;;;;;;20.97;11.57;;;12.50;56.50;;;;;;5042815;28;20462;-76
2023/12/03 00:58:14;;;;;;;22.17;11.90;;;12.50;56.60;;;;;;5035043;28;20435;-76
2023/12/03 01:00:42;;;;;;;22.67;11.90;;;12.50;56.80;;;;;;5046801;28;20438;-77
2023/12/03 01:03:10;;;;;;;21.23;11.90;;;12.50;56.70;;;;;;5054534;28;20446;-77
2023/12/03 01:05:39;;;;;;;22.13;11.63;;;12.50;56.60;;;;;;5069546;22;20507;-78
2023/12/03 01:08:06;;;;;;;16.93;10.77;;;12.50;56.80;;;;;;5033775;28;20452;-78
2023/12/03 01:10:34;;;;;;;20.20;11.37;;;12.50;56.80;;;;;;5036907;28;20496;-78
2023/12/03 01:13:02;;;;;;;17.67;10.47;;;12.50;56.90;;;;;;5038761;28;20531;-79
2023/12/03 01:15:32;;;;;;;19.87;11.10;;;12.50;56.80;;;;;;5036124;28;20458;-78
2023/12/03 01:18:01;;;;;;;18.70;10.90;;;12.60;56.90;;;;;;5048786;28;20435;-78
2023/12/03 01:20:29;;;;;;;18.07;11.30;;;12.60;56.90;;;;;;5053498;28;20450;-77
2023/12/03 01:23:02;;;;;;;17.53;9.97;;;12.50;56.90;;;;;;5041642;28;20602;-78
2023/12/03 01:25:31;;;;;;;15.93;10.27;;;12.60;57.00;;;;;;5033333;28;20499;-76
2023/12/03 01:28:01;;;;;;;18.27;10.70;;;12.60;57.00;;;;;;5047988;28;20949;-78
2023/12/03 01:30:30;;;;;;;14.70;9.40;;;12.60;57.00;;;;;;5035120;28;20443;-78
2023/12/03 01:32:58;;;;;;;18.20;10.43;;;12.60;57.00;;;;;;5025621;28;20448;-77
2023/12/03 01:35:27;;;;;;;16.50;10.47;;;12.60;57.00;;;;;;5013769;28;20551;-77
2023/12/03 01:37:55;;;;;;;17.20;10.00;;;12.60;57.10;;;;;;5017013;28;20440;-77
2023/12/03 01:40:25;;;;;;;16.20;9.67;;;12.60;57.10;;;;;;5042388;28;20479;-77
2023/12/03 01:42:54;;;;;;;13.47;9.00;;;12.60;57.00;;;;;;5053162;28;20565;-77
2023/12/03 01:45:25;;;;;;;17.57;10.00;;;12.60;57.00;;;;;;5046729;28;20540;-78
2023/12/03 01:47:54;;;;;;;17.33;10.20;;;12.60;57.10;;;;;;5044675;28;20538;-77
2023/12/03 01:50:22;;;;;;;15.37;9.40;;;12.60;57.20;;;;;;5036035;28;20447;-77
2023/12/03 01:52:55;;;;;;;16.63;10.23;;;12.60;57.10;;;;;;5033667;28;20439;-77
2023/12/03 01:55:28;;;;;;;12.20;8.60;;;12.60;57.20;;;;;;5033457;28;20509;-78
2023/12/03 01:58:02;;;;;;;14.37;9.40;;;12.60;57.20;;;;;;5042957;28;20526;-77
2023/12/03 02:00:32;;;;;;;15.87;9.40;;;12.60;57.20;;;;;;5033100;28;20454;-79
2023/12/03 02:03:06;;;;;;;15.20;8.63;;;12.60;57.20;;;;;;5033059;28;20494;-78
2023/12/03 02:05:35;;;;;;;14.27;8.60;;;12.60;57.10;;;;;;5034316;28;20931;-78
2023/12/03 02:08:07;;;;;;;17.20;9.00;;;12.60;57.20;;;;;;5047387;28;20447;-78
2023/12/03 02:10:44;;;;;;;11.87;8.40;;;12.60;57.20;;;;;;5045009;28;20438;-78
2023/12/03 02:13:15;;;;;;;16.30;9.60;;;12.60;57.40;;;;;;5044306;28;20447;-77
2023/12/03 02:15:49;;;;;;;13.70;8.77;;;12.60;57.30;;;;;;5027086;28;20467;-77
2023/12/03 02:18:18;;;;;;;13.60;9.00;;;12.60;57.20;;;;;;5033195;28;20969;-78
2023/12/03 02:20:48;;;;;;;14.87;9.20;;;12.60;57.30;;;;;;5033337;28;20463;-76
2023/12/03 02:23:18;;;;;;;14.87;8.70;;;12.70;57.40;;;;;;5032481;28;20521;-77
2023/12/03 02:25:50;;;;;;;16.83;8.90;;;12.70;57.50;;;;;;5033168;28;20491;-77
2023/12/03 02:28:19;;;;;;;12.70;8.70;;;12.70;57.40;;;;;;5032667;28;20473;-78
2023/12/03 02:30:46;;;;;;;16.50;9.03;;;12.70;57.50;;;;;;5035598;28;20455;-77
2023/12/03 02:33:15;;;;;;;13.00;8.70;;;12.70;57.40;;;;;;5036860;28;20501;-78
2023/12/03 02:35:44;;;;;;;13.53;8.50;;;12.70;57.50;;;;;;5032247;28;20458;-78
2023/12/03 02:38:12;;;;;;;13.50;7.80;;;12.70;57.60;;;;;;5032035;28;20454;-78
2023/12/03 02:40:42;;;;;;;14.20;8.30;;;12.70;57.50;;;;;;5034555;28;20517;-77
2023/12/03 02:43:10;;;;;;;15.80;8.60;;;12.70;57.50;;;;;;5038890;28;20566;-78
2023/12/03 02:45:38;;;;;;;12.73;8.37;;;12.70;57.40;;;;;;5032136;28;20889;-77
2023/12/03 02:48:06;;;;;;;12.47;7.37;;;12.70;57.50;;;;;;5032307;28;20447;-76
2023/12/03 02:50:34;;;;;;;14.43;8.17;;;12.70;57.40;;;;;;5032250;28;20440;-78
2023/12/03 02:53:02;;;;;;;12.30;8.37;;;12.70;57.70;;;;;;5032300;28;20444;-78
2023/12/03 02:55:31;;;;;;;14.17;8.40;;;12.70;58.10;;;;;;5041334;28;20937;-76
2023/12/03 02:58:00;;;;;;;12.93;8.43;;;12.70;57.50;;;;;;5047860;28;20459;-77
2023/12/03 03:00:29;;;;;;;14.07;8.40;;;12.70;57.50;;;;;;5032651;28;20966;-77
2023/12/03 03:02:57;;;;;;;12.03;7.77;;;12.70;57.50;;;;;;5013086;28;20476;-78
2023/12/03 03:05:28;;;;;;;11.23;7.30;;;12.70;57.50;;;;;;5027387;28;20479;-78
2023/12/03 03:07:56;;;;;;;10.97;7.50;;;12.70;57.50;;;;;;5040889;28;20435;-77
2023/12/03 03:10:24;;;;;;;11.80;7.97;;;12.70;57.60;;;;;;5032074;28;20451;-77
2023/12/03 03:12:53;;;;;;;12.67;8.20;;;12.70;57.40;;;;;;5040496;28;20486;-79
2023/12/03 03:15:22;;;;;;;10.23;6.83;;;12.70;57.50;;;;;;5033791;28;20459;-78
2023/12/03 03:17:50;;;;;;;11.30;7.70;;;12.60;57.50;;;;;;5051652;28;20442;-78
2023/12/03 03:20:22;;;;;;;14.77;8.53;;;12.60;57.50;;;;;;5042033;28;20458;-77
2023/12/03 03:22:58;;;;;;;13.87;8.47;;;12.70;57.60;;;;;;5040117;28;20490;-76
2023/12/03 03:25:29;;;;;;;12.03;7.07;;;12.70;57.60;;;;;;5032064;28;20463;-77
2023/12/03 03:28:03;;;;;;;12.67;7.53;;;12.70;57.60;;;;;;5028943;28;20459;-77
2023/12/03 03:30:32;;;;;;;14.80;8.37;;;12.70;57.50;;;;;;5032063;28;20451;-77
2023/12/03 03:33:03;;;;;;;13.60;7.80;;;12.70;57.60;;;;;;5032116;28;20454;-78
2023/12/03 03:35:33;;;;;;;10.03;6.70;;;12.70;57.60;;;;;;5029931;28;20478;-78
2023/12/03 03:38:08;;;;;;;10.30;7.20;;;12.70;57.60;;;;;;5031848;28;20531;-77
2023/12/03 03:40:39;;;;;;;11.53;7.70;;;12.70;57.80;;;;;;5038265;28;20450;-77
2023/12/03 03:43:08;;;;;;;11.00;7.30;;;12.70;57.60;;;;;;5031315;28;20467;-77
2023/12/03 03:45:39;;;;;;;10.40;7.00;;;12.70;57.70;;;;;;5032999;28;20572;-79
2023/12/03 03:48:12;;;;;;;12.10;8.07;;;12.70;57.60;;;;;;5046448;28;20444;-78
2023/12/03 03:50:44;;;;;;;10.67;7.37;;;12.70;57.80;;;;;;5031758;28;20451;-77
2023/12/03 03:53:21;;;;;;;11.53;7.40;;;12.70;57.70;;;;;;5031567;28;20461;-78
2023/12/03 03:55:56;;;;;;;13.10;7.70;;;12.70;57.90;;;;;;5031190;28;20559;-76
2023/12/03 03:58:27;;;;;;;13.57;8.17;;;12.70;57.80;;;;;;5032019;28;20446;-76
2023/12/03 04:00:57;;;;;;;12.30;8.67;;;12.70;57.80;;;;;;5031543;28;20547;-77
2023/12/03 04:03:25;;;;;;;11.97;7.63;;;12.70;57.90;;;;;;5031451;28;20498;-78
2023/12/03 04:05:54;;;;;;;11.20;7.17;;;12.70;57.70;;;;;;5031395;28;20521;-77
2023/12/03 04:08:22;;;;;;;12.33;7.93;;;12.70;57.80;;;;;;5031699;28;20439;-79
2023/12/03 04:10:50;;;;;;;11.77;8.00;;;12.70;57.80;;;;;;5039804;28;20443;-79
2023/12/03 04:13:18;;;;;;;13.10;8.37;;;12.80;58.00;;;;;;5039602;28;20435;-78
2023/12/03 04:15:46;;;;;;;11.40;8.00;;;12.80;58.00;;;;;;5031274;28;20525;-78
2023/12/03 04:18:15;;;;;;;12.37;7.80;;;12.70;57.90;;;;;;5031456;28;20455;-77
2023/12/03 04:20:43;;;;;;;15.50;9.10;;;12.70;57.80;;;;;;5033678;28;20440;-76
2023/12/03 04:23:11;;;;;;;16.17;9.70;;;12.80;58.00;;;;;;5035326;28;20475;-77
2023/12/03 04:25:39;;;;;;;21.57;12.60;;;12.80;58.00;;;;;;5035324;28;20459;-77
2023/12/03 04:28:09;;;;;;;20.80;12.10;;;12.80;58.00;;;;;;5036661;28;20479;-77
2023/12/03 04:30:37;;;;;;;22.30;12.97;;;12.80;57.90;;;;;;5040457;28;20479;-78
2023/12/03 04:33:04;;;;;;;23.33;13.70;;;12.80;57.90;;;;;;5034682;28;20438;-78
2023/12/03 04:35:33;;;;;;;26.80;14.47;;;12.80;58.00;;;;;;5034559;28;20459;-78
2023/12/03 04:38:01;;;;;;;24.27;13.93;;;12.80;58.00;;;;;;5034963;28;20435;-78
2023/12/03 04:40:31;;;;;;;26.40;15.03;;;12.80;58.10;;;;;;5043038;28;20538;-78
2023/12/03 04:43:00;;;;;;;30.23;16.00;;;12.80;58.00;;;;;;5038067;28;20459;-77
2023/12/03 04:45:30;;;;;;;30.10;16.60;;;12.80;58.00;;;;;;5037674;28;20467;-77
2023/12/03 04:48:05;;;;;;;27.97;16.03;;;12.80;58.00;;;;;;5038121;28;20470;-77
2023/12/03 04:50:41;;;;;;;32.67;16.93;;;12.80;58.20;;;;;;5042053;28;20458;-77
2023/12/03 04:53:09;;;;;;;34.77;18.70;;;12.80;58.20;;;;;;5050169;28;20442;-77
2023/12/03 04:55:37;;;;;;;29.57;17.10;;;12.80;58.60;;;;;;5046105;28;20498;-77
2023/12/03 04:58:05;;;;;;;31.67;16.87;;;12.80;58.10;;;;;;5052021;28;20447;-77
2023/12/03 05:00:34;;;;;;;33.07;18.40;;;12.80;58.20;;;;;;5050506;28;20439;-77
2023/12/03 05:03:02;;;;;;;31.40;18.20;;;12.80;58.10;;;;;;5033643;28;20574;-77
2023/12/03 05:05:31;;;;;;;31.63;18.07;;;12.80;58.30;;;;;;5014763;28;20480;-78
2023/12/03 05:08:00;;;;;;;32.30;17.73;;;12.80;58.20;;;;;;5033571;28;20497;-79
2023/12/03 05:10:31;;;;;;;32.00;17.93;;;12.90;58.30;;;;;;5042438;28;20537;-78
2023/12/03 05:13:00;;;;;;;33.37;17.90;;;12.90;58.40;;;;;;5053567;28;20447;-78
2023/12/03 05:15:29;;;;;;;32.33;17.00;;;12.80;58.10;;;;;;5054103;28;20471;-77
2023/12/03 05:17:57;;;;;;;28.97;16.67;;;12.90;58.20;;;;;;5054424;28;20450;-77
2023/12/03 05:20:25;;;;;;;29.87;16.97;;;12.80;58.10;;;;;;5023180;28;20501;-78
2023/12/03 05:22:53;;;;;;;30.50;16.80;;;12.80;58.20;;;;;;5026138;28;20534;-76
2023/12/03 05:25:23;;;;;;;30.07;16.60;;;12.80;58.20;;;;;;5039669;28;20509;-77
2023/12/03 05:27:54;;;;;;;33.07;17.50;;;12.80;58.10;;;;;;5040970;28;20978;-76
2023/12/03 05:30:25;;;;;;;28.37;16.00;;;12.80;58.30;;;;;;5040233;28;20474;-77
2023/12/03 05:32:53;;;;;;;30.67;17.33;;;12.90;58.30;;;;;;5034895;28;20481;-77
2023/12/03 05:35:22;;;;;;;29.00;16.30;;;12.90;58.30;;;;;;5033587;28;20490;-77
2023/12/03 05:37:51;;;;;;;31.23;16.30;;;12.90;58.20;;;;;;5019628;28;20445;-77
2023/12/03 05:40:21;;;;;;;27.40;15.70;;;12.90;58.40;;;;;;5025850;28;20455;-78
2023/12/03 05:42:53;;;;;;;28.83;16.67;;;12.90;58.30;;;;;;5041784;28;20442;-77
2023/12/03 05:45:22;;;;;;;31.30;16.43;;;12.90;58.40;;;;;;5033103;28;20495;-78
2023/12/03 05:47:51;;;;;;;29.50;15.70;;;12.90;58.30;;;;;;5041743;28;20476;-78
2023/12/03 05:50:21;;;;;;;27.20;15.50;;;12.90;58.40;;;;;;5033355;28;20454;-78
2023/12/03 05:52:49;;;;;;;30.20;15.47;;;12.90;58.30;;;;;;5034618;28;20451;-77
2023/12/03 05:55:17;;;;;;;25.67;15.00;;;12.90;58.30;;;;;;5021815;28;20590;-77
2023/12/03 05:57:45;;;;;;;27.60;15.17;;;12.90;58.20;;;;;;5041486;28;20535;-78
2023/12/03 06:00:16;;;;;;;26.07;14.87;;;12.90;58.40;;;;;;5040462;28;20542;-78
2023/12/03 06:02:45;;;;;;;23.50;13.17;;;12.90;58.40;;;;;;5033313;28;20455;-77
2023/12/03 06:05:13;;;;;;;26.43;15.73;;;12.90;58.30;;;;;;5032673;28;20471;-76
2023/12/03 06:07:41;;;;;;;25.97;13.87;;;12.90;58.50;;;;;;5033169;28;20452;-76
2023/12/03 06:10:09;;;;;;;24.20;13.73;;;12.90;58.30;;;;;;5029254;28;20451;-77
2023/12/03 06:12:38;;;;;;;22.30;13.57;;;12.90;58.40;;;;;;5023588;28;20476;-78
2023/12/03 06:15:07;;;;;;;23.13;13.70;;;12.90;58.40;;;;;;5051897;28;20434;-74
2023/12/03 06:17:36;;;;;;;22.80;13.43;;;12.90;58.50;;;;;;5052929;28;20446;-78
2023/12/03 06:20:06;;;;;;;23.97;13.50;;;12.90;58.50;;;;;;5044588;28;20454;-78
2023/12/03 06:22:34;;;;;;;23.60;12.90;;;13.00;58.50;;;;;;5033214;28;20454;-77
2023/12/03 06:25:02;;;;;;;21.27;12.60;;;12.90;58.30;;;;;;5032732;28;20494;-76
2023/12/03 06:27:31;;;;;;;22.67;12.67;;;12.90;58.50;;;;;;5032775;28;20447;-77
2023/12/03 06:29:59;;;;;;;21.30;13.43;;;12.90;58.50;;;;;;5032441;28;20498;-77
2023/12/03 06:32:27;;;;;;;21.00;11.80;;;12.90;58.40;;;;;;5032411;28;20455;-77
2023/12/03 06:35:00;;;;;;;22.63;13.27;;;12.90;58.50;;;;;;5032652;28;20447;-76
2023/12/03 06:37:28;;;;;;;21.60;12.67;;;13.00;58.60;;;;;;5032823;28;20514;-77
2023/12/03 06:39:56;;;;;;;22.00;13.43;;;13.00;58.60;;;;;;5032626;28;20447;-77
2023/12/03 06:42:24;;;;;;;22.20;12.50;;;12.90;58.50;;;;;;5032601;28;20543;-78
2023/12/03 06:44:54;;;;;;;20.33;12.40;;;13.00;58.60;;;;;;5026893;28;20535;-77
2023/12/03 06:47:22;;;;;;;18.50;11.30;;;13.00;58.50;;;;;;5012597;28;20971;-77
2023/12/03 06:49:50;;;;;;;19.00;11.40;;;13.00;58.40;;;;;;5012949;28;20437;-79
2023/12/03 06:52:20;;;;;;;16.67;11.23;;;13.00;58.40;;;;;;5013188;28;20444;-78
2023/12/03 06:54:48;;;;;;;18.13;11.40;;;13.00;58.60;;;;;;5012768;28;20531;-78
2023/12/03 06:57:15;;;;;;;17.47;10.97;;;12.90;58.50;;;;;;5012451;28;20482;-78
2023/12/03 06:59:43;;;;;;;21.30;11.80;;;13.00;58.60;;;;;;5012781;28;20440;-78
2023/12/03 07:02:12;;;;;;;20.50;11.30;;;13.00;58.60;;;;;;5012835;28;20527;-77
2023/12/03 07:04:40;;;;;;;19.23;11.07;;;13.00;58.60;;;;;;5013524;28;20472;-79
2023/12/03 07:07:09;;;;;;;18.83;10.37;;;13.00;58.50;;;;;;5053328;22;20487;-77
2023/12/03 07:09:38;;;;;;;16.80;10.13;;;13.00;59.10;;;;;;5052409;28;20426;-75
2023/12/03 07:12:07;;;;;;;16.23;10.40;;;13.00;58.60;;;;;;5069879;28;20438;-74
2023/12/03 07:14:35;;;;;;;19.63;11.60;;;13.00;59.10;;;;;;5073377;28;20431;-75
2023/12/03 07:17:03;;;;;;;18.50;10.53;;;13.00;58.60;;;;;;5072195;28;20512;-76
2023/12/03 07:19:31;;;;;;;18.80;11.00;;;13.00;58.70;;;;;;5057369;28;20451;-76
2023/12/03 07:21:59;;;;;;;16.70;10.83;;;13.00;58.50;;;;;;5053298;28;20498;-75
2023/12/03 07:24:27;;;;;;;17.70;10.23;;;13.00;58.50;;;;;;5052214;28;20504;-75
2023/12/03 07:26:56;;;;;;;17.20;10.40;;;13.00;58.60;;;;;;5052577;28;20508;-75
2023/12/03 07:29:24;;;;;;;17.50;10.23;;;13.00;58.50;;;;;;5052467;28;20466;-75
2023/12/03 07:31:53;;;;;;;16.83;10.00;;;13.00;58.70;;;;;;5052472;28;20434;-74
2023/12/03 07:34:21;;;;;;;16.77;10.00;;;13.00;58.60;;;;;;5052598;28;20542;-75
2023/12/03 07:36:49;;;;;;;14.50;9.50;;;13.10;58.60;;;;;;5052346;28;20494;-75
2023/12/03 07:39:17;;;;;;;18.90;10.33;;;13.00;58.60;;;;;;5052295;28;20435;-75
2023/12/03 07:41:50;;;;;;;15.93;9.40;;;13.00;58.50;;;;;;5052375;28;20477;-74
2023/12/03 07:44:19;;;;;;;16.47;9.93;;;13.00;59.00;;;;;;5052090;28;20430;-75
2023/12/03 07:46:47;;;;;;;14.70;9.60;;;13.00;58.50;;;;;;5052585;28;20463;-75
2023/12/03 07:49:16;;;;;;;15.33;9.10;;;13.00;58.40;;;;;;5052457;28;20477;-75
2023/12/03 07:51:46;;;;;;;15.73;9.00;;;13.00;58.30;;;;;;5052113;28;20438;-75
2023/12/03 07:54:14;;;;;;;15.83;9.67;;;13.00;58.40;;;;;;5052286;28;20449;-75
2023/12/03 07:56:41;;;;;;;19.47;11.00;;;13.00;58.50;;;;;;5055620;28;20462;-75
2023/12/03 07:59:09;;;;;;;15.40;9.00;;;13.00;58.30;;;;;;5055470;28;20439;-76
2023/12/03 08:01:38;;;;;;;15.70;9.30;;;13.10;58.50;;;;;;5055281;28;20883;-75
2023/12/03 08:04:06;;;;;;;19.97;10.83;;;13.10;58.40;;;;;;5038663;28;20447;-77
2023/12/03 08:06:35;;;;;;;14.47;8.70;;;13.00;58.30;;;;;;5035121;28;20483;-76
2023/12/03 08:09:03;;;;;;;13.47;8.97;;;13.00;58.30;;;;;;5035690;28;20438;-76
2023/12/03 08:11:31;;;;;;;17.50;10.30;;;13.00;58.20;;;;;;5034964;28;20504;-77
2023/12/03 08:13:59;;;;;;;17.10;9.90;;;13.00;58.40;;;;;;5035406;28;20538;-76
2023/12/03 08:16:28;;;;;;;15.53;9.77;;;13.10;58.30;;;;;;5034850;28;21045;-76
2023/12/03 08:18:58;;;;;;;14.00;8.83;;;13.10;58.50;;;;;;5035580;28;20435;-76
2023/12/03 08:21:26;;;;;;;14.90;9.17;;;13.00;58.30;;;;;;5035381;28;20443;-77
2023/12/03 08:23:54;;;;;;;13.97;8.43;;;13.10;58.40;;;;;;5034840;28;20435;-76
2023/12/03 08:26:22;;;;;;;12.40;8.40;;;13.10;58.50;;;;;;5034869;28;20514;-76
2023/12/03 08:28:50;;;;;;;14.00;8.63;;;13.10;58.40;;;;;;5034919;28;20458;-76
2023/12/03 08:31:19;;;;;;;15.10;9.07;;;13.10;58.40;;;;;;5050226;28;20513;-76
2023/12/03 08:33:47;;;;;;;14.17;8.73;;;13.10;58.40;;;;;;5054525;28;20521;-76
2023/12/03 08:36:18;;;;;;;12.40;8.00;;;13.10;58.20;;;;;;5051741;28;20623;-75
2023/12/03 08:38:46;;;;;;;12.90;8.43;;;13.10;58.20;;;;;;5043026;28;20428;-76
2023/12/03 08:41:14;;;;;;;11.73;7.50;;;13.10;58.30;;;;;;5044931;28;20447;-77
2023/12/03 08:43:42;;;;;;;13.53;8.40;;;13.10;58.30;;;;;;5045560;28;20460;-76
2023/12/03 08:46:10;;;;;;;13.30;8.33;;;13.10;58.30;;;;;;5047217;28;20470;-75
2023/12/03 08:48:38;;;;;;;14.67;8.57;;;13.10;58.00;;;;;;5051715;28;20486;-75
2023/12/03 08:51:08;;;;;;;13.10;7.80;;;13.10;58.40;;;;;;5050263;28;20446;-76
2023/12/03 08:53:38;;;;;;;11.27;7.80;;;13.10;58.20;;;;;;5044585;28;20477;-75
2023/12/03 08:56:10;;;;;;;12.10;7.70;;;13.10;58.40;;;;;;5057891;28;20508;-75
2023/12/03 08:58:38;;;;;;;11.50;7.80;;;13.10;58.10;;;;;;5058892;28;20496;-77
2023/12/03 09:01:07;;;;;;;13.13;7.90;;;13.10;58.20;;;;;;5055664;28;20533;-77
2023/12/03 09:03:37;;;;;;;12.60;7.97;;;13.10;58.10;;;;;;5057605;28;20501;-77
2023/12/03 09:06:07;;;;;;;13.20;7.77;;;13.10;58.30;;;;;;5054148;28;20478;-75
2023/12/03 09:08:34;;;;;;;12.00;7.27;;;13.20;58.30;;;;;;5053227;28;20536;-75
2023/12/03 09:11:06;;;;;;;11.83;8.00;;;13.20;58.50;;;;;;5056963;28;20437;-76
2023/12/03 09:13:34;;;;;;;10.70;7.87;;;13.20;58.30;;;;;;5059995;28;20470;-75
2023/12/03 09:16:02;;;;;;;12.47;7.90;;;13.20;58.40;;;;;;5052317;28;20490;-74
2023/12/03 09:18:30;;;;;;;11.93;7.60;;;13.20;58.30;;;;;;5058299;28;20438;-75
2023/12/03 09:20:58;;;;;;;10.93;7.30;;;13.20;58.30;;;;;;5068902;28;20467;-75
2023/12/03 09:23:28;;;;;;;11.03;7.20;;;13.20;58.30;;;;;;5053973;28;20438;-75
2023/12/03 09:25:56;;;;;;;11.53;7.10;;;13.20;58.30;;;;;;5053452;28;20478;-75
2023/12/03 09:28:29;;;;;;;11.10;7.13;;;13.20;58.00;;;;;;5054090;28;20588;-75
2023/12/03 09:30:58;;;;;;;10.57;7.00;;;13.20;58.40;;;;;;5049351;28;20530;-75
2023/12/03 09:33:26;;;;;;;16.23;7.20;;;13.20;58.40;;;;;;5048325;28;20474;-76
2023/12/03 09:35:55;;;;;;;9.87;6.80;;;13.30;58.40;;;;;;5049082;28;20505;-75
2023/12/03 09:38:23;;;;;;;11.53;7.20;;;13.30;58.30;;;;;;5062006;28;20541;-75
2023/12/03 09:40:52;;;;;;;7.60;5.90;;;13.30;58.30;;;;;;5055560;28;20504;-75
2023/12/03 09:43:19;;;;;;;9.40;6.53;;;13.30;58.40;;;;;;5053218;28;20439;-76
2023/12/03 09:45:49;;;;;;;10.33;6.53;;;13.30;58.30;;;;;;5048175;28;20514;-76
2023/12/03 09:48:16;;;;;;;8.30;6.07;;;13.30;58.40;;;;;;5049006;28;20447;-76
2023/12/03 09:50:45;;;;;;;8.40;5.90;;;13.30;58.40;;;;;;5045957;28;20461;-75
2023/12/03 09:53:14;;;;;;;11.23;6.80;;;13.30;58.40;;;;;;5055564;28;20446;-75
2023/12/03 09:55:42;;;;;;;10.70;6.30;;;13.40;58.20;;;;;;5059560;28;20552;-76
2023/12/03 09:58:11;;;;;;;9.17;6.03;;;13.40;58.40;;;;;;5056020;28;20470;-75
2023/12/03 10:00:39;;;;;;;12.00;6.17;;;13.40;58.30;;;;;;5052642;28;20439;-74
2023/12/03 10:03:09;;;;;;;9.30;6.20;;;13.40;58.40;;;;;;5052390;28;20481;-75
2023/12/03 10:05:37;;;;;;;9.80;6.23;;;13.40;58.40;;;;;;5043239;28;20446;-75
2023/12/03 10:08:06;;;;;;;10.50;6.20;;;13.40;58.40;;;;;;5053386;28;20449;-75
2023/12/03 10:10:35;;;;;;;9.10;5.83;;;13.40;58.40;;;;;;5045656;28;20470;-73
2023/12/03 10:13:03;;;;;;;8.53;6.27;;;13.40;58.50;;;;;;5059609;28;20446;-76
2023/12/03 10:15:31;;;;;;;10.80;6.40;;;13.40;58.50;;;;;;5055746;28;20433;-75
2023/12/03 10:17:59;;;;;;;10.07;6.43;;;13.40;58.40;;;;;;5057334;28;20435;-76
2023/12/03 10:20:29;;;;;;;8.03;6.37;;;13.40;58.40;;;;;;5052432;28;20443;-75
2023/12/03 10:22:59;;;;;;;7.27;5.73;;;13.40;58.50;;;;;;5049199;28;20496;-75
2023/12/03 10:25:28;;;;;;;9.57;6.63;;;13.40;58.40;;;;;;5052544;28;20466;-76
2023/12/03 10:27:58;;;;;;;9.47;6.40;;;13.40;58.30;;;;;;5059696;28;20474;-76
2023/12/03 10:30:26;;;;;;;8.77;6.07;;;13.40;58.40;;;;;;5072415;28;20437;-75
2023/12/03 10:32:55;;;;;;;8.53;5.80;;;13.40;58.40;;;;;;5073104;28;20442;-75
2023/12/03 10:35:23;;;;;;;10.40;6.30;;;13.40;58.30;;;;;;5074636;28;20509;-75
2023/12/03 10:37:53;;;;;;;9.10;6.53;;;13.40;58.40;;;;;;5053269;28;20443;-76
2023/12/03 10:40:21;;;;;;;8.40;5.90;;;13.40;58.40;;;;;;5051894;28;20478;-76
2023/12/03 10:42:49;;;;;;;7.40;5.30;;;13.40;58.20;;;;;;5062890;28;20450;-75
2023/12/03 10:45:18;;;;;;;7.80;5.63;;;13.40;58.30;;;;;;5060353;28;20468;-76
2023/12/03 10:47:46;;;;;;;8.03;5.57;;;13.40;58.30;;;;;;5052045;28;20466;-75
2023/12/03 10:50:14;;;;;;;9.90;6.57;;;13.40;58.20;;;;;;5052015;28;20531;-75
2023/12/03 10:52:43;;;;;;;8.03;5.50;;;13.40;58.10;;;;;;5058713;28;20541;-76
2023/12/03 10:55:13;;;;;;;8.67;5.67;;;13.40;58.40;;;;;;5046161;28;20451;-76
2023/12/03 10:57:48;;;;;;;10.30;6.53;;;13.40;58.20;;;;;;5044695;28;20516;-76
2023/12/03 11:00:18;;;;;;;9.80;6.00;;;13.40;58.40;;;;;;5051702;28;20440;-76
2023/12/03 11:02:47;;;;;;;7.60;5.70;;;13.40;58.20;;;;;;5056458;28;20798;-76
2023/12/03 11:05:24;;;;;;;12.50;6.20;;;13.40;58.20;;;;;;5059140;28;20458;-76
2023/12/03 11:07:52;;;;;;;8.43;5.67;;;13.40;58.30;;;;;;5070932;28;20476;-75
2023/12/03 11:10:22;;;;;;;8.60;5.50;;;13.40;58.20;;;;;;5062352;28;20522;-76
2023/12/03 11:12:50;;;;;;;7.23;5.63;;;13.40;58.30;;;;;;5052126;28;20438;-75
2023/12/03 11:15:18;;;;;;;12.63;6.27;;;13.40;58.30;;;;;;5051444;28;20430;-76
2023/12/03 11:17:46;;;;;;;6.50;5.10;;;13.50;58.40;;;;;;5054085;28;20463;-75
2023/12/03 11:20:16;;;;;;;8.70;5.83;;;13.50;58.30;;;;;;5069567;28;20472;-76
2023/12/03 11:22:53;;;;;;;10.67;5.23;;;13.50;58.30;;;;;;5048638;28;20439;-75
2023/12/03 11:25:25;;;;;;;7.83;4.90;;;13.50;58.30;;;;;;5049062;28;20469;-72
2023/12/03 11:27:53;;;;;;;6.60;5.30;;;13.50;58.30;;;;;;5060045;28;20462;-75
2023/12/03 11:30:36;;;;;;;6.97;5.30;;;13.50;58.30;;;;;;5053989;28;20453;-75
2023/12/03 11:33:07;;;;;;;8.30;5.80;;;13.50;58.20;;;;;;5064248;28;20443;-75
2023/12/03 11:35:35;;;;;;;7.47;5.10;;;13.60;58.40;;;;;;5055082;28;20446;-73
2023/12/03 11:38:03;;;;;;;9.10;5.83;;;13.60;58.30;;;;;;5055601;28;20463;-74
2023/12/03 11:40:35;;;;;;;8.10;5.57;;;13.60;58.30;;;;;;5065551;28;20528;-76
2023/12/03 11:43:05;;;;;;;8.33;5.63;;;13.60;58.10;;;;;;5061147;28;20466;-75
2023/12/03 11:45:34;;;;;;;7.60;5.47;;;13.60;58.20;;;;;;5070085;28;20434;-75
2023/12/03 11:48:09;;;;;;;9.93;5.80;;;13.60;58.20;;;;;;5061018;28;20558;-75
2023/12/03 11:50:38;;;;;;;9.50;5.57;;;13.60;58.00;;;;;;5055771;28;20448;-76
2023/12/03 11:53:07;;;;;;;7.50;5.33;;;13.60;58.10;;;;;;5060473;28;20449;-75
2023/12/03 11:55:36;;;;;;;6.60;5.20;;;13.60;58.10;;;;;;5057354;28;20537;-75
2023/12/03 11:58:05;;;;;;;8.70;5.60;;;13.60;58.10;;;;;;5069893;28;20445;-75
2023/12/03 12:00:33;;;;;;;11.33;5.90;;;13.60;58.00;;;;;;5060991;28;20454;-75
2023/12/03 12:03:02;;;;;;;6.47;4.83;;;13.60;58.10;;;;;;5069025;28;20460;-75
2023/12/03 12:05:31;;;;;;;7.63;5.80;;;13.60;58.10;;;;;;5055446;28;20488;-75
2023/12/03 12:08:01;;;;;;;8.13;5.20;;;13.60;58.00;;;;;;5064469;28;20496;-75
2023/12/03 12:10:31;;;;;;;9.00;5.77;;;13.70;58.20;;;;;;5058657;28;20575;-74
2023/12/03 12:13:01;;;;;;;8.63;5.70;;;13.60;58.10;;;;;;5053377;28;20533;-75
2023/12/03 12:15:29;;;;;;;8.23;5.87;;;13.60;58.10;;;;;;5054857;28;20941;-74
2023/12/03 12:17:58;;;;;;;8.63;5.53;;;13.70;58.20;;;;;;5055310;28;20513;-75
2023/12/03 12:20:26;;;;;;;10.20;6.13;;;13.70;58.20;;;;;;5055606;28;20512;-74
2023/12/03 12:22:54;;;;;;;8.20;5.47;;;13.70;58.60;;;;;;5055346;28;20436;-74
2023/12/03 12:25:26;;;;;;;6.77;5.00;;;13.70;58.10;;;;;;5054907;28;20473;-74
2023/12/03 12:27:54;;;;;;;8.03;5.17;;;13.60;58.00;;;;;;5054906;28;20478;-75
2023/12/03 12:30:26;;;;;;;8.20;5.40;;;13.60;58.10;;;;;;5046057;28;20475;-75
2023/12/03 12:33:02;;;;;;;7.90;5.83;;;13.70;58.10;;;;;;5053039;28;20937;-74
2023/12/03 12:35:32;;;;;;;7.00;5.50;;;13.70;58.00;;;;;;5054506;28;20438;-73
2023/12/03 12:38:01;;;;;;;8.50;5.80;;;13.70;58.10;;;;;;5055040;28;20431;-74
2023/12/03 12:40:30;;;;;;;9.13;5.90;;;13.70;58.10;;;;;;5054074;28;20518;-74
2023/12/03 12:43:06;;;;;;;6.80;5.10;;;13.70;58.20;;;;;;5054754;28;20431;-74
2023/12/03 12:45:35;;;;;;;9.17;5.70;;;13.70;58.10;;;;;;5054584;28;20478;-74